Time;durP1;ratioP1;P1;durP2;ratioP2;P2;SDS_P1;SDS_P2;PMS_P1;PMS_P2;Temp;Humidity;BMP_temperature;BMP_pressure;BME280_temperature;BME280_humidity;BME280_pressure;Samples;Min_cycle;Max_cycle;Signal;HPM_P1;HPM_P2
2021/10/04 00:00:34;;;;;;;6.93;3.50;;;12.80;99.90;;;;;;5068088;28;20214;-85
2021/10/04 00:03:03;;;;;;;5.03;3.85;;;12.70;99.90;;;;;;5070719;28;20221;-85
2021/10/04 00:05:30;;;;;;;4.60;4.00;;;12.70;99.90;;;;;;5075144;28;20202;-84
2021/10/04 00:07:57;;;;;;;3.88;3.25;;;12.70;99.90;;;;;;5080623;28;20288;-84
2021/10/04 00:10:24;;;;;;;5.55;3.80;;;12.70;99.90;;;;;;5072997;28;20264;-84
2021/10/04 00:12:52;;;;;;;4.60;4.10;;;12.70;99.90;;;;;;5073940;28;20204;-84
2021/10/04 00:15:21;;;;;;;5.05;4.47;;;12.60;99.90;;;;;;5067403;28;20225;-84
2021/10/04 00:17:49;;;;;;;7.68;4.13;;;12.60;99.90;;;;;;5069716;28;20228;-84
2021/10/04 00:20:18;;;;;;;7.78;3.88;;;12.50;99.90;;;;;;5075120;28;20293;-84
2021/10/04 00:22:47;;;;;;;5.63;4.15;;;12.50;99.90;;;;;;5073584;28;20197;-84
2021/10/04 00:25:14;;;;;;;7.68;4.28;;;12.40;99.90;;;;;;5076240;28;20190;-84
2021/10/04 00:27:42;;;;;;;9.25;3.80;;;12.40;99.90;;;;;;5077170;28;20220;-85
2021/10/04 00:30:11;;;;;;;4.95;3.38;;;12.40;99.90;;;;;;5082496;28;20201;-84
2021/10/04 00:32:40;;;;;;;5.32;4.10;;;12.30;99.90;;;;;;5074888;28;20254;-84
2021/10/04 00:35:09;;;;;;;8.40;4.60;;;12.30;99.90;;;;;;5079071;28;20201;-84
2021/10/04 00:37:37;;;;;;;4.97;3.95;;;12.20;99.90;;;;;;5076333;28;20222;-85
2021/10/04 00:40:08;;;;;;;4.93;3.65;;;12.20;99.90;;;;;;5077550;28;20210;-84
2021/10/04 00:42:35;;;;;;;4.20;3.78;;;12.20;99.90;;;;;;5078500;28;20204;-85
2021/10/04 00:45:04;;;;;;;5.53;3.58;;;12.20;99.90;;;;;;5074196;28;20200;-84
2021/10/04 00:47:31;;;;;;;5.15;3.70;;;12.20;99.90;;;;;;5066282;28;20216;-84
2021/10/04 00:49:58;;;;;;;4.75;3.40;;;12.20;99.90;;;;;;5071756;28;20252;-84
2021/10/04 00:52:25;;;;;;;13.52;4.10;;;12.20;99.90;;;;;;5061255;28;20209;-84
2021/10/04 00:54:53;;;;;;;9.75;4.47;;;12.20;99.90;;;;;;5061024;28;20201;-85
2021/10/04 00:57:21;;;;;;;5.70;4.35;;;12.10;99.90;;;;;;5064197;28;20229;-84
2021/10/04 00:59:49;;;;;;;4.00;3.60;;;12.10;99.90;;;;;;5065427;28;20224;-85
2021/10/04 01:02:16;;;;;;;6.82;3.05;;;12.10;99.90;;;;;;5060104;28;20263;-84
2021/10/04 01:04:44;;;;;;;4.72;3.58;;;12.20;99.90;;;;;;5069634;28;20260;-85
2021/10/04 01:07:12;;;;;;;5.43;3.90;;;12.20;99.90;;;;;;5062869;28;20264;-84
2021/10/04 01:09:39;;;;;;;3.38;3.05;;;12.20;99.90;;;;;;5062414;28;20205;-85
2021/10/04 01:12:08;;;;;;;3.70;3.30;;;12.30;99.90;;;;;;5062080;28;20217;-84
2021/10/04 01:14:36;;;;;;;5.10;3.75;;;12.30;99.90;;;;;;5063588;28;20206;-84
2021/10/04 01:17:03;;;;;;;6.00;3.53;;;12.30;99.90;;;;;;5063869;28;20215;-84
2021/10/04 01:19:30;;;;;;;5.40;3.60;;;12.30;99.90;;;;;;5069982;28;20206;-85
2021/10/04 01:21:59;;;;;;;6.00;4.05;;;12.20;99.90;;;;;;5072126;28;20191;-84
2021/10/04 01:24:26;;;;;;;12.98;4.25;;;12.20;99.90;;;;;;5062671;28;20210;-84
2021/10/04 01:26:53;;;;;;;4.97;4.00;;;12.30;99.90;;;;;;5061393;28;20266;-84
2021/10/04 01:29:21;;;;;;;7.50;5.63;;;12.30;99.90;;;;;;5063888;28;20220;-84
2021/10/04 01:31:48;;;;;;;5.90;4.85;;;12.30;99.90;;;;;;5059978;28;20201;-84
2021/10/04 01:34:15;;;;;;;4.88;4.30;;;12.30;99.90;;;;;;5066832;28;20206;-83
2021/10/04 01:36:42;;;;;;;6.43;5.05;;;12.30;99.90;;;;;;5068616;28;20201;-85
2021/10/04 01:39:11;;;;;;;6.00;5.40;;;12.30;99.90;;;;;;5059016;28;20208;-84
2021/10/04 01:41:38;;;;;;;6.57;5.30;;;12.30;99.90;;;;;;5059638;28;20231;-84
2021/10/04 01:44:06;;;;;;;6.70;5.20;;;12.40;99.90;;;;;;5067978;28;20213;-84
2021/10/04 01:46:33;;;;;;;7.78;5.80;;;12.40;99.90;;;;;;5057476;28;20217;-84
2021/10/04 01:49:00;;;;;;;6.43;5.63;;;12.30;99.90;;;;;;5061680;28;20229;-84
2021/10/04 01:51:28;;;;;;;13.38;6.38;;;12.20;99.90;;;;;;5066694;28;20232;-85
2021/10/04 01:53:55;;;;;;;9.40;6.57;;;12.20;99.90;;;;;;5067849;28;20187;-84
2021/10/04 01:56:23;;;;;;;19.27;7.90;;;12.20;99.90;;;;;;5067518;28;20191;-85
2021/10/04 01:58:50;;;;;;;10.40;7.43;;;12.20;99.90;;;;;;5069982;28;20201;-84
2021/10/04 02:01:18;;;;;;;10.75;7.60;;;12.10;99.90;;;;;;5075162;28;20224;-84
2021/10/04 02:03:45;;;;;;;13.38;8.50;;;12.20;99.90;;;;;;5078486;28;20205;-84
2021/10/04 02:06:12;;;;;;;13.30;8.88;;;12.20;99.90;;;;;;5078522;28;20257;-84
2021/10/04 02:08:39;;;;;;;8.20;6.47;;;12.20;99.90;;;;;;5078623;28;20260;-84
2021/10/04 02:11:06;;;;;;;13.43;8.05;;;12.20;99.90;;;;;;5078564;28;20217;-84
2021/10/04 02:13:35;;;;;;;12.07;7.22;;;12.20;99.90;;;;;;5064370;28;20212;-84
2021/10/04 02:16:02;;;;;;;11.98;9.63;;;12.30;99.90;;;;;;5063241;28;20204;-84
2021/10/04 02:18:30;;;;;;;10.55;8.30;;;12.30;99.90;;;;;;5078506;28;20220;-84
2021/10/04 02:20:57;;;;;;;11.10;7.93;;;12.40;99.90;;;;;;5078422;28;20225;-84
2021/10/04 02:23:25;;;;;;;15.48;9.63;;;12.30;99.90;;;;;;5078249;28;20284;-84
2021/10/04 02:25:53;;;;;;;14.15;8.80;;;12.40;99.90;;;;;;5078502;28;20212;-84
2021/10/04 02:28:20;;;;;;;12.55;8.63;;;12.30;99.90;;;;;;5075776;28;20239;-84
2021/10/04 02:30:51;;;;;;;10.95;7.93;;;12.40;99.90;;;;;;5059786;28;20291;-85
2021/10/04 02:33:18;;;;;;;13.65;8.13;;;12.40;99.90;;;;;;5059565;28;20215;-84
2021/10/04 02:35:46;;;;;;;13.48;8.02;;;12.40;99.90;;;;;;5060040;28;20566;-84
2021/10/04 02:38:13;;;;;;;12.57;8.77;;;12.50;99.90;;;;;;5063991;28;20228;-84
2021/10/04 02:40:41;;;;;;;11.00;9.57;;;12.50;99.90;;;;;;5067640;28;20592;-85
2021/10/04 02:43:09;;;;;;;15.50;8.70;;;12.40;99.90;;;;;;5054909;28;20209;-84
2021/10/04 02:45:36;;;;;;;13.35;8.68;;;12.40;99.90;;;;;;5060868;28;20586;-85
2021/10/04 02:48:06;;;;;;;13.88;8.85;;;12.40;99.90;;;;;;5060400;28;20311;-84
2021/10/04 02:50:33;;;;;;;13.15;8.57;;;12.40;99.90;;;;;;5063121;28;20204;-85
2021/10/04 02:53:00;;;;;;;11.85;8.40;;;12.30;99.90;;;;;;5059394;28;20207;-84
2021/10/04 02:55:27;;;;;;;11.35;8.48;;;12.30;99.90;;;;;;5063783;28;20218;-84
2021/10/04 02:57:55;;;;;;;13.63;8.15;;;12.20;99.90;;;;;;5055597;28;20750;-85
2021/10/04 03:00:22;;;;;;;13.60;9.13;;;12.30;99.90;;;;;;5065930;28;20393;-85
2021/10/04 03:02:49;;;;;;;13.35;9.10;;;12.20;99.90;;;;;;5057166;28;20194;-84
2021/10/04 03:05:18;;;;;;;10.85;8.65;;;12.20;99.90;;;;;;5056266;28;20598;-85
2021/10/04 03:07:45;;;;;;;10.77;8.00;;;12.20;99.90;;;;;;5054125;28;20234;-84
2021/10/04 03:10:12;;;;;;;11.70;8.45;;;12.20;99.90;;;;;;5056364;28;20208;-84
2021/10/04 03:12:39;;;;;;;11.00;7.72;;;12.20;99.90;;;;;;5056410;28;20203;-84
2021/10/04 03:15:07;;;;;;;13.73;9.05;;;12.10;99.90;;;;;;5066694;28;20672;-83
2021/10/04 03:17:34;;;;;;;13.90;8.82;;;12.10;99.90;;;;;;5054319;28;20320;-84
2021/10/04 03:20:01;;;;;;;8.05;6.78;;;12.00;99.90;;;;;;5062376;28;20204;-84
2021/10/04 03:22:30;;;;;;;13.63;7.97;;;12.00;99.90;;;;;;5053747;28;20206;-84
2021/10/04 03:24:57;;;;;;;10.65;8.57;;;12.10;99.90;;;;;;5054384;28;20736;-84
2021/10/04 03:27:24;;;;;;;12.30;8.10;;;12.10;99.90;;;;;;5057805;28;20240;-84
2021/10/04 03:29:51;;;;;;;9.80;7.90;;;12.00;99.90;;;;;;5059177;28;20201;-84
2021/10/04 03:32:18;;;;;;;10.55;8.07;;;12.10;99.90;;;;;;5058425;28;20230;-84
2021/10/04 03:34:45;;;;;;;9.73;7.10;;;12.10;99.90;;;;;;5051606;28;20206;-84
2021/10/04 03:37:15;;;;;;;17.27;7.78;;;12.00;99.90;;;;;;5058932;28;20204;-84
2021/10/04 03:39:44;;;;;;;8.95;6.55;;;12.00;99.90;;;;;;5070156;28;20249;-84
2021/10/04 03:42:11;;;;;;;10.23;8.20;;;12.00;99.90;;;;;;5068877;28;20264;-84
2021/10/04 03:44:38;;;;;;;11.57;8.70;;;12.00;99.90;;;;;;5075876;28;20201;-84
2021/10/04 03:47:06;;;;;;;11.95;9.13;;;12.00;99.90;;;;;;5077588;28;20218;-84
2021/10/04 03:49:33;;;;;;;10.63;6.88;;;12.00;99.90;;;;;;5073161;28;20300;-84
2021/10/04 03:52:01;;;;;;;9.27;6.95;;;12.00;99.90;;;;;;5077223;28;20245;-83
2021/10/04 03:54:28;;;;;;;7.40;5.82;;;12.10;99.90;;;;;;5077725;28;20192;-84
2021/10/04 03:56:57;;;;;;;7.80;6.13;;;12.10;99.90;;;;;;5077561;28;20248;-84
2021/10/04 03:59:24;;;;;;;8.80;7.13;;;12.00;99.90;;;;;;5079450;28;20198;-84
2021/10/04 04:01:52;;;;;;;9.32;6.35;;;12.00;99.90;;;;;;5073757;28;20208;-84
2021/10/04 04:04:19;;;;;;;9.30;7.43;;;12.00;99.90;;;;;;5072123;28;20207;-84
2021/10/04 04:06:46;;;;;;;11.63;6.38;;;12.00;99.90;;;;;;5066090;28;20202;-85
2021/10/04 04:09:13;;;;;;;7.90;5.53;;;11.90;99.90;;;;;;5059720;28;20286;-85
2021/10/04 04:11:42;;;;;;;7.93;5.57;;;12.00;99.90;;;;;;5061355;28;20203;-84
2021/10/04 04:14:10;;;;;;;7.85;5.43;;;12.00;99.90;;;;;;5062048;28;20200;-85
2021/10/04 04:16:37;;;;;;;8.65;5.65;;;12.00;99.90;;;;;;5061486;28;20199;-84
2021/10/04 04:19:05;;;;;;;7.20;5.10;;;11.90;99.90;;;;;;5058783;28;20234;-85
2021/10/04 04:21:33;;;;;;;6.50;5.90;;;11.90;99.90;;;;;;5059874;28;20299;-84
2021/10/04 04:24:01;;;;;;;10.93;6.65;;;11.80;99.90;;;;;;5058519;28;20227;-84
2021/10/04 04:26:28;;;;;;;7.20;5.80;;;11.80;99.90;;;;;;5054029;28;20200;-85
2021/10/04 04:28:55;;;;;;;9.90;5.63;;;11.80;99.90;;;;;;5059309;28;20243;-84
2021/10/04 04:31:23;;;;;;;6.30;4.38;;;11.80;99.90;;;;;;5056642;28;20190;-85
2021/10/04 04:33:50;;;;;;;7.38;5.50;;;11.80;99.90;;;;;;5060205;28;20204;-84
2021/10/04 04:36:17;;;;;;;7.80;5.03;;;11.80;99.90;;;;;;5070679;28;20207;-84
2021/10/04 04:38:45;;;;;;;5.82;5.32;;;11.80;99.90;;;;;;5066702;28;20223;-84
2021/10/04 04:41:12;;;;;;;9.55;5.68;;;11.80;99.90;;;;;;5062842;28;20262;-85
2021/10/04 04:43:39;;;;;;;10.55;4.65;;;11.80;99.90;;;;;;5048136;28;20218;-84
2021/10/04 04:46:06;;;;;;;11.52;5.55;;;11.80;99.90;;;;;;5062493;28;20211;-84
2021/10/04 04:48:35;;;;;;;9.23;5.00;;;11.80;99.90;;;;;;5060555;28;20286;-85
2021/10/04 04:51:02;;;;;;;5.65;4.00;;;11.70;99.90;;;;;;5070713;28;20184;-84
2021/10/04 04:53:29;;;;;;;6.50;4.57;;;11.80;99.90;;;;;;5077601;28;20193;-84
2021/10/04 04:55:56;;;;;;;6.10;4.78;;;11.80;99.90;;;;;;5087004;28;20196;-85
2021/10/04 04:58:23;;;;;;;8.00;5.70;;;11.70;99.90;;;;;;5078401;28;20203;-84
2021/10/04 05:00:50;;;;;;;5.00;4.10;;;11.70;99.90;;;;;;5064893;28;20552;-84
2021/10/04 05:03:18;;;;;;;6.78;4.30;;;11.80;99.90;;;;;;5060551;28;20212;-84
2021/10/04 05:05:46;;;;;;;7.38;4.60;;;11.80;99.90;;;;;;5060590;28;20199;-84
2021/10/04 05:08:13;;;;;;;8.38;5.10;;;11.80;99.90;;;;;;5062434;28;20792;-85
2021/10/04 05:10:41;;;;;;;8.30;4.78;;;11.70;99.90;;;;;;5070554;28;20670;-85
2021/10/04 05:13:08;;;;;;;5.75;4.70;;;11.70;99.90;;;;;;5063283;28;20207;-84
2021/10/04 05:15:36;;;;;;;4.88;3.90;;;11.70;99.90;;;;;;5062598;28;20709;-84
2021/10/04 05:18:03;;;;;;;6.65;4.60;;;11.80;99.90;;;;;;5066537;28;20250;-84
2021/10/04 05:20:30;;;;;;;7.53;4.68;;;11.70;99.90;;;;;;5066154;28;20211;-84
2021/10/04 05:22:59;;;;;;;6.10;4.18;;;11.70;99.90;;;;;;5069010;28;20687;-84
2021/10/04 05:25:26;;;;;;;6.47;4.18;;;11.80;99.90;;;;;;5062931;28;20196;-84
2021/10/04 05:27:54;;;;;;;5.78;3.85;;;11.70;99.90;;;;;;5062543;28;20234;-84
2021/10/04 05:30:21;;;;;;;6.85;4.25;;;11.70;99.90;;;;;;5063586;28;20215;-85
2021/10/04 05:32:48;;;;;;;4.93;4.00;;;11.60;99.90;;;;;;5068627;28;20224;-85
2021/10/04 05:35:16;;;;;;;8.70;4.25;;;11.60;99.90;;;;;;5067805;28;20253;-85
2021/10/04 05:37:44;;;;;;;4.75;3.42;;;11.70;99.90;;;;;;5059871;28;20230;-85
2021/10/04 05:40:14;;;;;;;7.82;4.43;;;11.70;99.90;;;;;;5060095;28;20210;-85
2021/10/04 05:42:42;;;;;;;4.45;3.78;;;11.70;99.90;;;;;;5069866;28;20293;-84
2021/10/04 05:45:11;;;;;;;7.03;4.45;;;11.70;99.90;;;;;;5062816;28;20205;-85
2021/10/04 05:47:39;;;;;;;7.75;3.97;;;11.70;99.90;;;;;;5063328;28;20320;-85
2021/10/04 05:50:07;;;;;;;6.65;4.47;;;11.70;99.90;;;;;;5062083;28;20209;-85
2021/10/04 05:52:35;;;;;;;7.65;4.40;;;11.50;99.90;;;;;;5064802;28;20211;-85
2021/10/04 05:55:02;;;;;;;5.55;3.78;;;11.70;99.90;;;;;;5061883;28;20212;-85
2021/10/04 05:57:30;;;;;;;8.65;4.63;;;11.70;99.90;;;;;;5062291;28;20234;-85
2021/10/04 05:59:58;;;;;;;11.75;3.40;;;11.80;99.90;;;;;;5066955;28;20213;-85
2021/10/04 06:02:25;;;;;;;5.20;4.03;;;11.90;99.90;;;;;;5067714;28;20225;-85
2021/10/04 06:04:52;;;;;;;4.15;3.60;;;12.00;99.90;;;;;;5065214;28;20201;-85
2021/10/04 06:07:19;;;;;;;6.47;4.05;;;12.00;99.90;;;;;;5063934;28;20230;-85
2021/10/04 06:09:46;;;;;;;4.45;3.80;;;12.20;99.90;;;;;;5069661;28;20199;-85
2021/10/04 06:12:13;;;;;;;4.20;3.50;;;12.30;99.90;;;;;;5056290;28;20221;-84
2021/10/04 06:14:42;;;;;;;4.72;3.55;;;12.50;99.90;;;;;;5062134;28;20209;-85
2021/10/04 06:17:09;;;;;;;4.45;3.72;;;12.60;99.90;;;;;;5066748;28;20227;-85
2021/10/04 06:19:36;;;;;;;6.60;3.35;;;12.70;99.90;;;;;;5053316;28;20195;-85
2021/10/04 06:22:03;;;;;;;5.55;3.45;;;12.70;99.90;;;;;;5068324;28;20219;-85
2021/10/04 06:24:30;;;;;;;4.82;2.83;;;12.70;99.90;;;;;;5067282;28;20289;-85
2021/10/04 06:26:58;;;;;;;3.33;2.42;;;12.80;99.90;;;;;;5066768;28;20277;-85
2021/10/04 06:29:25;;;;;;;5.43;2.90;;;12.90;99.90;;;;;;5055597;28;20206;-85
2021/10/04 06:31:54;;;;;;;5.53;3.08;;;12.90;99.90;;;;;;5058265;28;20259;-85
2021/10/04 06:34:21;;;;;;;5.68;3.22;;;13.10;99.90;;;;;;5062117;28;20213;-85
2021/10/04 06:36:48;;;;;;;7.30;3.00;;;13.10;99.90;;;;;;5066445;28;20194;-85
2021/10/04 06:39:15;;;;;;;4.05;3.17;;;13.10;99.90;;;;;;5056692;28;20218;-85
2021/10/04 06:41:42;;;;;;;3.83;2.35;;;13.30;99.90;;;;;;5062044;28;20325;-85
2021/10/04 06:44:10;;;;;;;3.08;2.50;;;13.40;99.90;;;;;;5060951;28;20203;-84
2021/10/04 06:46:38;;;;;;;4.80;2.95;;;13.60;99.90;;;;;;5058324;28;20203;-85
2021/10/04 06:49:07;;;;;;;4.32;2.45;;;13.60;99.90;;;;;;5059675;28;20230;-85
2021/10/04 06:51:34;;;;;;;4.93;2.25;;;13.90;99.90;;;;;;5058372;28;20568;-85
2021/10/04 06:54:01;;;;;;;7.10;2.70;;;14.00;99.90;;;;;;5052545;28;20211;-85
2021/10/04 06:56:28;;;;;;;3.20;1.70;;;14.30;99.90;;;;;;5054366;28;20203;-85
2021/10/04 06:58:55;;;;;;;3.60;1.95;;;14.30;99.90;;;;;;5061359;28;20216;-85
2021/10/04 07:01:23;;;;;;;5.65;2.90;;;14.30;99.90;;;;;;5056450;28;20191;-85
2021/10/04 07:03:50;;;;;;;3.75;2.05;;;14.50;99.90;;;;;;5063585;28;20515;-84
2021/10/04 07:06:18;;;;;;;5.28;2.20;;;14.40;99.90;;;;;;5056794;28;20290;-84
2021/10/04 07:08:45;;;;;;;5.82;2.30;;;14.30;99.90;;;;;;5055201;28;20227;-84
2021/10/04 07:11:13;;;;;;;2.40;1.55;;;14.20;99.90;;;;;;5065938;28;20717;-84
2021/10/04 07:13:40;;;;;;;2.60;1.70;;;14.30;99.90;;;;;;5064505;28;20286;-84
2021/10/04 07:16:11;;;;;;;2.25;2.05;;;14.20;99.90;;;;;;5061340;28;20202;-85
2021/10/04 07:18:39;;;;;;;4.70;1.92;;;14.30;99.90;;;;;;5061510;28;20234;-85
2021/10/04 07:21:06;;;;;;;4.30;2.30;;;14.30;99.90;;;;;;5048862;28;20682;-85
2021/10/04 07:23:35;;;;;;;5.88;2.10;;;14.30;99.90;;;;;;5065175;28;20310;-85
2021/10/04 07:26:02;;;;;;;6.63;1.88;;;14.30;99.90;;;;;;5047610;28;20203;-85
2021/10/04 07:28:29;;;;;;;2.25;1.67;;;14.30;99.90;;;;;;5046140;28;20319;-85
2021/10/04 07:30:58;;;;;;;3.47;2.25;;;14.20;99.90;;;;;;5051301;28;20200;-84
2021/10/04 07:33:25;;;;;;;2.90;1.80;;;14.20;99.90;;;;;;5053602;28;20195;-84
2021/10/04 07:35:55;;;;;;;4.45;2.75;;;14.30;99.90;;;;;;5068216;28;20195;-84
2021/10/04 07:38:23;;;;;;;3.95;2.42;;;14.30;99.90;;;;;;5056328;28;20243;-85
2021/10/04 07:40:52;;;;;;;3.80;1.80;;;14.40;99.90;;;;;;5060019;28;20200;-84
2021/10/04 07:43:19;;;;;;;3.97;2.30;;;14.50;99.90;;;;;;5047325;28;20217;-85
2021/10/04 07:45:46;;;;;;;2.90;2.70;;;14.30;99.90;;;;;;5059230;28;20207;-84
2021/10/04 07:48:13;;;;;;;7.05;2.45;;;14.30;99.90;;;;;;5067702;28;20319;-84
2021/10/04 07:50:44;;;;;;;6.28;2.38;;;14.10;99.90;;;;;;5064790;28;20196;-86
2021/10/04 07:53:11;;;;;;;3.70;1.92;;;14.10;99.90;;;;;;5053044;28;20231;-85
2021/10/04 07:55:39;;;;;;;4.32;1.85;;;14.10;99.90;;;;;;5062528;28;20199;-86
2021/10/04 07:58:07;;;;;;;4.45;1.65;;;14.20;99.90;;;;;;5080418;28;20334;-85
2021/10/04 08:00:35;;;;;;;6.22;2.08;;;14.10;99.90;;;;;;5073008;28;20255;-82
2021/10/04 08:03:02;;;;;;;3.90;1.75;;;14.10;99.90;;;;;;5076952;28;20218;-85
2021/10/04 08:05:29;;;;;;;2.22;1.70;;;14.10;99.90;;;;;;5077136;28;20200;-83
2021/10/04 08:07:57;;;;;;;3.97;2.30;;;14.20;99.90;;;;;;5076887;28;20214;-85
2021/10/04 08:10:24;;;;;;;3.75;2.05;;;14.30;99.90;;;;;;5077704;28;20248;-82
2021/10/04 08:12:52;;;;;;;3.33;2.33;;;14.30;99.90;;;;;;5081096;28;20260;-83
2021/10/04 08:15:21;;;;;;;3.00;2.03;;;14.20;99.90;;;;;;5079796;28;20211;-84
2021/10/04 08:17:48;;;;;;;2.90;1.98;;;14.40;99.90;;;;;;5079717;28;20214;-84
2021/10/04 08:20:16;;;;;;;1.73;1.60;;;14.50;99.90;;;;;;5073969;28;20238;-84
2021/10/04 08:22:43;;;;;;;4.15;1.90;;;14.50;99.90;;;;;;5074546;28;20212;-84
2021/10/04 08:25:12;;;;;;;3.13;1.80;;;14.60;99.90;;;;;;5074721;28;20287;-83
2021/10/04 08:27:40;;;;;;;3.08;1.70;;;14.60;99.90;;;;;;5074506;28;20235;-85
2021/10/04 08:30:08;;;;;;;3.83;1.88;;;14.60;99.90;;;;;;5072017;28;20227;-84
2021/10/04 08:32:37;;;;;;;2.33;1.90;;;14.70;99.90;;;;;;5073126;28;20275;-85
2021/10/04 08:35:05;;;;;;;2.33;1.30;;;14.70;99.90;;;;;;5073389;28;20625;-85
2021/10/04 08:37:33;;;;;;;2.58;1.70;;;14.70;99.90;;;;;;5073071;28;20230;-85
2021/10/04 08:40:01;;;;;;;4.80;2.22;;;14.60;99.90;;;;;;5072748;28;20198;-85
2021/10/04 08:42:28;;;;;;;6.43;1.70;;;14.70;99.90;;;;;;5070903;28;20219;-85
2021/10/04 08:44:56;;;;;;;3.88;1.60;;;14.70;99.90;;;;;;5079912;28;20191;-85
2021/10/04 08:47:23;;;;;;;3.45;1.40;;;14.70;99.90;;;;;;5076540;28;20227;-84
2021/10/04 08:49:52;;;;;;;7.05;2.70;;;14.80;99.90;;;;;;5078277;28;20204;-85
2021/10/04 08:52:20;;;;;;;6.25;2.00;;;15.00;99.90;;;;;;5077815;28;20215;-85
2021/10/04 08:54:48;;;;;;;6.32;2.60;;;15.00;99.90;;;;;;5077184;28;20238;-85
2021/10/04 08:57:16;;;;;;;3.80;1.67;;;15.10;99.90;;;;;;5072054;28;20624;-85
2021/10/04 08:59:43;;;;;;;3.47;1.70;;;15.00;99.90;;;;;;5069989;28;20200;-84
2021/10/04 09:02:28;;;;;;;4.25;2.05;;;15.00;99.90;;;;;;5069803;28;20227;-85
2021/10/04 09:05:11;;;;;;;3.95;1.63;;;15.10;99.90;;;;;;5070645;28;20207;-85
2021/10/04 09:07:40;;;;;;;2.90;1.83;;;15.30;99.90;;;;;;5067006;28;20219;-85
2021/10/04 09:10:09;;;;;;;2.35;1.70;;;15.40;99.90;;;;;;5070085;28;20199;-84
2021/10/04 09:12:49;;;;;;;4.13;1.55;;;15.50;99.90;;;;;;5057166;28;20215;-85
2021/10/04 09:15:35;;;;;;;2.15;1.70;;;15.40;99.90;;;;;;5063783;28;20224;-85
2021/10/04 09:18:04;;;;;;;4.65;1.80;;;15.40;99.90;;;;;;5059719;28;20260;-85
2021/10/04 09:20:51;;;;;;;4.05;2.33;;;15.60;99.90;;;;;;5063670;28;20282;-85
2021/10/04 09:23:29;;;;;;;5.63;1.52;;;15.60;99.90;;;;;;5060693;28;20310;-85
2021/10/04 09:25:57;;;;;;;3.03;1.70;;;15.60;99.90;;;;;;5067741;28;20295;-85
2021/10/04 09:28:28;;;;;;;2.85;1.20;;;15.60;99.90;;;;;;5071663;28;20600;-85
2021/10/04 09:31:15;;;;;;;2.88;1.60;;;15.80;99.90;;;;;;5077168;28;20265;-85
2021/10/04 09:34:01;;;;;;;4.20;1.50;;;15.90;99.90;;;;;;5068936;28;20232;-86
2021/10/04 09:36:30;;;;;;;1.50;1.30;;;16.30;99.90;;;;;;5066747;28;20202;-84
2021/10/04 09:39:22;;;;;;;2.58;1.25;;;16.40;99.90;;;;;;5062844;28;20250;-86
2021/10/04 09:42:11;;;;;;;2.83;1.42;;;16.40;99.90;;;;;;5064532;28;20215;-85
2021/10/04 09:44:48;;;;;;;3.70;1.30;;;16.50;99.90;;;;;;5056318;28;20240;-83
2021/10/04 09:47:17;;;;;;;4.05;1.40;;;16.20;99.90;;;;;;5066094;28;20241;-84
2021/10/04 09:49:53;;;;;;;3.17;1.40;;;16.40;99.90;;;;;;5069720;28;20210;-85
2021/10/04 09:52:38;;;;;;;2.30;1.70;;;16.50;99.90;;;;;;5062665;28;20212;-84
2021/10/04 09:55:24;;;;;;;5.05;1.20;;;16.40;99.90;;;;;;5058426;28;20498;-85
2021/10/04 09:57:56;;;;;;;3.75;1.60;;;16.70;99.90;;;;;;5067336;28;20206;-84
2021/10/04 10:00:23;;;;;;;5.20;1.70;;;16.70;99.90;;;;;;5073713;28;20215;-84
2021/10/04 10:02:55;;;;;;;5.63;1.88;;;16.80;99.90;;;;;;5071117;28;20485;-85
2021/10/04 10:05:24;;;;;;;3.40;1.38;;;16.80;99.90;;;;;;5079982;28;20183;-85
2021/10/04 10:07:53;;;;;;;4.20;2.00;;;16.90;99.90;;;;;;5077824;28;20206;-84
2021/10/04 10:10:21;;;;;;;6.83;1.83;;;17.10;99.90;;;;;;5081767;28;20504;-84
2021/10/04 10:12:48;;;;;;;2.50;1.40;;;17.00;99.90;;;;;;5077384;28;20441;-85
2021/10/04 10:15:21;;;;;;;1.98;1.27;;;17.10;99.90;;;;;;5077582;28;20444;-85
2021/10/04 10:17:50;;;;;;;5.30;1.77;;;17.20;99.90;;;;;;5077631;28;20220;-84
2021/10/04 10:20:21;;;;;;;3.00;1.90;;;17.20;99.90;;;;;;5077475;28;20528;-84
2021/10/04 10:22:50;;;;;;;4.27;1.90;;;17.10;99.90;;;;;;5077320;28;20568;-85
2021/10/04 10:25:34;;;;;;;5.80;2.00;;;17.30;99.90;;;;;;5077584;28;20433;-85
2021/10/04 10:28:02;;;;;;;2.07;1.37;;;17.40;99.90;;;;;;5077398;28;20497;-84
2021/10/04 10:30:30;;;;;;;2.47;1.33;;;17.50;99.90;;;;;;5077339;28;20476;-83
2021/10/04 10:32:58;;;;;;;3.07;1.30;;;17.80;99.90;;;;;;5076561;28;20453;-84
2021/10/04 10:35:49;;;;;;;4.10;1.20;;;17.80;99.90;;;;;;5077448;28;20500;-84
2021/10/04 10:38:17;;;;;;;2.63;1.20;;;17.70;99.90;;;;;;5076731;28;20472;-84
2021/10/04 11:10:27;;;;;;;5.23;2.00;;;17.70;99.90;;;;;;6085109;23;20407;-86
2021/10/04 11:51:49;;;;;;;2.23;1.17;;;18.80;99.90;;;;;;5970941;23;20404;-85
2021/10/04 13:24:33;;;;;;;3.87;0.87;;;18.30;99.90;;;;;;5888379;24;20365;-86
